Wetterdaten: Woche 23.04.12 - 29.04.12 (KW17)
Datum Zeit Temp. Innen Temp. Aussen UV X Diff Temp. Feuchte Inne Feuchte Auss Sonnenschein Luftdruck Regen ab 0,1 Wind Sonnenschein T Regendauer Windben
23.04.2012 00:00 16,3 C 6,3 C 0,0 UV-I 0,0 C 48 % 86 % 0 % 1005,4 hPa 0,0 l/m 2,0 km/h (1 Bft) 0,00 h 0,00 h 6,1 km/h (2 Bft)
23.04.2012 01:00 16,1 C 5,9 C 0,0 UV-I 0,0 C 48 % 88 % 0 % 1005,1 hPa 0,0 l/m 2,0 km/h (1 Bft) 0,00 h 0,00 h 6,4 km/h (2 Bft)
23.04.2012 02:00 15,9 C 5,8 C 0,0 UV-I 0,0 C 49 % 89 % 0 % 1005,1 hPa 0,0 l/m 1,7 km/h (1 Bft) 0,00 h 0,00 h 5,8 km/h (2 Bft)
23.04.2012 03:00 15,8 C 5,8 C 0,0 UV-I 0,0 C 50 % 90 % 0 % 1004,6 hPa 0,0 l/m 1,7 km/h (1 Bft) 0,00 h 0,00 h 4,6 km/h (1 Bft)
23.04.2012 04:00 15,8 C 5,2 C 0,0 UV-I 0,0 C 50 % 90 % 0 % 1004,3 hPa 0,0 l/m 1,3 km/h (1 Bft) 0,00 h 0,00 h 4,1 km/h (1 Bft)
23.04.2012 05:00 15,7 C 4,7 C 0,0 UV-I 0,0 C 50 % 91 % 0 % 1004,1 hPa 0,0 l/m 2,3 km/h (1 Bft) 0,00 h 0,00 h 5,3 km/h (1 Bft)
23.04.2012 06:00 15,6 C 4,7 C 0,0 UV-I 0,0 C 50 % 92 % 0 % 1003,7 hPa 0,0 l/m 2,0 km/h (1 Bft) 0,00 h 0,00 h 5,3 km/h (1 Bft)
23.04.2012 07:00 15,6 C 5,5 C 0,0 UV-I 0,0 C 50 % 93 % 1 % 1003,7 hPa 0,0 l/m 1,9 km/h (1 Bft) 0,00 h 0,00 h 5,7 km/h (1 Bft)
23.04.2012 08:00 15,7 C 7,2 C 0,1 UV-I 1,6 C 50 % 90 % 43 % 1003,6 hPa 0,0 l/m 4,9 km/h (1 Bft) 0,30 h 0,00 h 10,5 km/h (2 Bft)
23.04.2012 09:00 15,8 C 8,8 C 1,1 UV-I 4,8 C 50 % 84 % 98 % 1003,3 hPa 0,0 l/m 6,8 km/h (2 Bft) 0,93 h 0,00 h 13,5 km/h (3 Bft)
23.04.2012 10:00 15,9 C 10,2 C 2,5 UV-I 5,8 C 49 % 76 % 100 % 1002,6 hPa 0,0 l/m 8,7 km/h (2 Bft) 1,00 h 0,00 h 15,4 km/h (3 Bft)
23.04.2012 11:00 16,2 C 11,6 C 4,1 UV-I 6,3 C 47 % 66 % 100 % 1002,7 hPa 0,0 l/m 10,0 km/h (2 Bft) 1,00 h 0,00 h 17,0 km/h (3 Bft)
23.04.2012 12:00 16,4 C 12,2 C 2,0 UV-I 4,2 C 46 % 61 % 98 % 1001,8 hPa 0,0 l/m 8,1 km/h (2 Bft) 1,00 h 0,00 h 14,3 km/h (3 Bft)
23.04.2012 13:00 17,2 C 13,7 C 2,4 UV-I 5,6 C 45 % 59 % 100 % 1000,6 hPa 0,0 l/m 6,7 km/h (2 Bft) 1,00 h 0,00 h 12,9 km/h (3 Bft)
23.04.2012 14:00 18,2 C 13,9 C 1,2 UV-I 2,7 C 43 % 55 % 77 % 1000,0 hPa 0,0 l/m 7,0 km/h (2 Bft) 0,40 h 0,00 h 12,7 km/h (3 Bft)
23.04.2012 15:00 18,6 C 13,6 C 0,9 UV-I 2,0 C 42 % 55 % 54 % 998,9 hPa 0,0 l/m 9,4 km/h (2 Bft) 0,20 h 0,00 h 15,2 km/h (3 Bft)
23.04.2012 16:00 18,7 C 13,5 C 1,3 UV-I 1,9 C 42 % 57 % 53 % 998,2 hPa 0,0 l/m 12,2 km/h (2 Bft) 0,00 h 0,00 h 20,9 km/h (4 Bft)
23.04.2012 17:00 19,1 C 13,3 C 0,9 UV-I 1,5 C 41 % 55 % 41 % 997,4 hPa 0,0 l/m 11,2 km/h (2 Bft) 0,00 h 0,00 h 17,9 km/h (3 Bft)
23.04.2012 18:00 18,9 C 13,4 C 0,3 UV-I 0,9 C 41 % 56 % 25 % 996,8 hPa 0,0 l/m 7,4 km/h (2 Bft) 0,00 h 0,00 h 12,4 km/h (3 Bft)
23.04.2012 19:00 18,5 C 12,9 C 0,0 UV-I 0,0 C 42 % 58 % 0 % 996,4 hPa 0,0 l/m 7,4 km/h (2 Bft) 0,00 h 0,00 h 12,5 km/h (3 Bft)
23.04.2012 20:00 18,0 C 12,0 C 0,0 UV-I 0,0 C 42 % 59 % 0 % 996,3 hPa 0,0 l/m 9,2 km/h (2 Bft) 0,00 h 0,00 h 12,4 km/h (3 Bft)
23.04.2012 21:00 17,5 C 10,7 C 0,0 UV-I 0,0 C 43 % 67 % 0 % 996,5 hPa 0,1 l/m 8,7 km/h (2 Bft) 0,00 h 0,60 h 15,3 km/h (3 Bft)
23.04.2012 22:00 17,2 C 8,9 C 0,0 UV-I 0,0 C 47 % 80 % 0 % 996,1 hPa 1,4 l/m 4,9 km/h (1 Bft) 0,00 h 1,00 h 7,8 km/h (2 Bft)
23.04.2012 23:00 16,9 C 8,2 C 0,0 UV-I 0,0 C 49 % 87 % 0 % 995,5 hPa 0,9 l/m 3,4 km/h (1 Bft) 0,00 h 0,93 h 7,7 km/h (2 Bft)
24.04.2012 00:00 16,8 C 7,9 C 0,0 UV-I 0,0 C 50 % 89 % 0 % 995,3 hPa 0,5 l/m 5,1 km/h (1 Bft) 0,00 h 0,83 h 9,1 km/h (2 Bft)
24.04.2012 01:00 16,7 C 7,7 C 0,0 UV-I 0,0 C 51 % 90 % 0 % 994,8 hPa 0,1 l/m 4,6 km/h (1 Bft) 0,00 h 0,13 h 8,6 km/h (2 Bft)
24.04.2012 02:00 16,6 C 7,6 C 0,0 UV-I 0,0 C 51 % 90 % 0 % 994,4 hPa 0,0 l/m 6,4 km/h (2 Bft) 0,00 h 0,00 h 10,4 km/h (2 Bft)
24.04.2012 03:00 16,6 C 7,7 C 0,0 UV-I 0,0 C 51 % 91 % 0 % 994,1 hPa 0,0 l/m 4,6 km/h (1 Bft) 0,00 h 0,10 h 8,0 km/h (2 Bft)
24.04.2012 04:00 16,6 C 7,6 C 0,0 UV-I 0,0 C 52 % 92 % 0 % 994,0 hPa 0,2 l/m 2,6 km/h (1 Bft) 0,00 h 0,20 h 5,9 km/h (2 Bft)
24.04.2012 05:00 16,5 C 7,2 C 0,0 UV-I 0,0 C 52 % 92 % 0 % 993,9 hPa 0,0 l/m 2,5 km/h (1 Bft) 0,00 h 0,00 h 5,7 km/h (1 Bft)
24.04.2012 06:00 16,4 C 7,2 C 0,0 UV-I 0,0 C 52 % 93 % 0 % 993,8 hPa 0,0 l/m 2,8 km/h (1 Bft) 0,00 h 0,30 h 5,2 km/h (1 Bft)
24.04.2012 07:00 16,4 C 7,5 C 0,0 UV-I 0,0 C 53 % 93 % 0 % 993,9 hPa 0,1 l/m 1,7 km/h (1 Bft) 0,00 h 0,00 h 3,6 km/h (1 Bft)
24.04.2012 08:00 16,5 C 8,1 C 0,2 UV-I 0,8 C 52 % 91 % 22 % 994,0 hPa 0,0 l/m 1,7 km/h (1 Bft) 0,00 h 0,00 h 4,8 km/h (1 Bft)
24.04.2012 09:00 16,7 C 9,6 C 0,7 UV-I 3,0 C 52 % 86 % 84 % 994,1 hPa 0,0 l/m 5,0 km/h (1 Bft) 0,60 h 0,00 h 10,9 km/h (2 Bft)
24.04.2012 10:00 16,8 C 10,3 C 0,6 UV-I 1,8 C 51 % 80 % 51 % 993,9 hPa 0,0 l/m 6,1 km/h (2 Bft) 0,00 h 0,00 h 10,0 km/h (2 Bft)
24.04.2012 11:00 17,0 C 10,1 C 0,6 UV-I 0,6 C 51 % 82 % 18 % 994,0 hPa 0,0 l/m 6,7 km/h (2 Bft) 0,00 h 0,20 h 11,2 km/h (2 Bft)
24.04.2012 12:00 17,2 C 10,7 C 1,1 UV-I 1,8 C 51 % 83 % 51 % 994,1 hPa 0,1 l/m 6,5 km/h (2 Bft) 0,00 h 0,30 h 10,7 km/h (2 Bft)
24.04.2012 13:00 17,5 C 11,3 C 1,0 UV-I 2,0 C 52 % 83 % 55 % 994,0 hPa 0,4 l/m 4,6 km/h (1 Bft) 0,40 h 0,37 h 8,5 km/h (2 Bft)
24.04.2012 14:00 18,1 C 11,4 C 1,9 UV-I 2,7 C 51 % 82 % 73 % 994,0 hPa 0,1 l/m 6,8 km/h (2 Bft) 0,67 h 0,03 h 14,1 km/h (3 Bft)
24.04.2012 15:00 19,3 C 12,2 C 2,0 UV-I 5,0 C 48 % 76 % 100 % 994,1 hPa 0,0 l/m 3,5 km/h (1 Bft) 1,00 h 0,00 h 6,5 km/h (2 Bft)
24.04.2012 16:00 19,4 C 11,3 C 0,5 UV-I 0,8 C 47 % 79 % 24 % 994,5 hPa 0,7 l/m 1,6 km/h (1 Bft) 0,03 h 0,47 h 4,5 km/h (1 Bft)
24.04.2012 17:00 19,3 C 11,6 C 0,8 UV-I 2,1 C 47 % 80 % 60 % 994,8 hPa 0,0 l/m 2,3 km/h (1 Bft) 0,17 h 0,00 h 6,3 km/h (2 Bft)
24.04.2012 18:00 19,0 C 11,8 C 0,1 UV-I 0,9 C 47 % 77 % 27 % 995,5 hPa 0,0 l/m 1,1 km/h (0 Bft) 0,00 h 0,00 h 2,7 km/h (1 Bft)
24.04.2012 19:00 18,6 C 12,1 C 0,0 UV-I 0,3 C 48 % 74 % 9 % 995,8 hPa 0,0 l/m 1,7 km/h (1 Bft) 0,00 h 0,00 h 4,3 km/h (1 Bft)
24.04.2012 20:00 18,0 C 10,0 C 0,0 UV-I 0,0 C 49 % 79 % 0 % 996,7 hPa 5,4 l/m 2,3 km/h (1 Bft) 0,00 h 0,77 h 4,7 km/h (1 Bft)
24.04.2012 21:00 17,4 C 8,2 C 0,0 UV-I 0,0 C 52 % 87 % 0 % 997,8 hPa 0,0 l/m 0,0 km/h (0 Bft) 0,00 h 0,00 h 0,0 km/h (0 Bft)
24.04.2012 22:00 17,1 C 8,4 C 0,0 UV-I 0,0 C 54 % 91 % 0 % 998,5 hPa 0,1 l/m 0,2 km/h (0 Bft) 0,00 h 0,00 h 1,1 km/h (1 Bft)
24.04.2012 23:00 17,0 C 8,5 C 0,0 UV-I 0,0 C 54 % 91 % 0 % 999,2 hPa 0,0 l/m 1,6 km/h (1 Bft) 0,00 h 0,00 h 3,8 km/h (1 Bft)
25.04.2012 00:00 17,0 C 8,7 C 0,0 UV-I 0,0 C 53 % 91 % 0 % 1000,1 hPa 0,0 l/m 3,1 km/h (1 Bft) 0,00 h 0,00 h 7,0 km/h (2 Bft)
25.04.2012 01:00 16,9 C 8,3 C 0,0 UV-I 0,0 C 53 % 91 % 0 % 1000,2 hPa 0,0 l/m 3,2 km/h (1 Bft) 0,00 h 0,00 h 6,9 km/h (2 Bft)
25.04.2012 02:00 16,8 C 8,0 C 0,0 UV-I 0,0 C 53 % 92 % 0 % 1000,8 hPa 0,0 l/m 2,7 km/h (1 Bft) 0,00 h 0,00 h 6,3 km/h (2 Bft)
25.04.2012 03:00 16,8 C 8,1 C 0,0 UV-I 0,0 C 53 % 92 % 0 % 1001,0 hPa 0,0 l/m 4,0 km/h (1 Bft) 0,00 h 0,00 h 8,3 km/h (2 Bft)
25.04.2012 04:00 16,6 C 7,7 C 0,0 UV-I 0,0 C 53 % 92 % 0 % 1001,2 hPa 0,0 l/m 0,9 km/h (0 Bft) 0,00 h 0,00 h 2,7 km/h (1 Bft)
25.04.2012 05:00 16,5 C 7,8 C 0,0 UV-I 0,0 C 54 % 93 % 0 % 1001,1 hPa 0,0 l/m 0,9 km/h (0 Bft) 0,00 h 0,00 h 3,4 km/h (1 Bft)
25.04.2012 06:00 16,5 C 7,8 C 0,0 UV-I 0,0 C 54 % 93 % 0 % 1001,1 hPa 0,0 l/m 0,9 km/h (0 Bft) 0,00 h 0,00 h 2,5 km/h (1 Bft)
25.04.2012 07:00 16,5 C 7,6 C 0,0 UV-I 0,0 C 54 % 92 % 0 % 1001,2 hPa 0,0 l/m 2,4 km/h (1 Bft) 0,00 h 0,00 h 6,2 km/h (2 Bft)
25.04.2012 08:00 16,5 C 8,5 C 0,2 UV-I 2,3 C 53 % 90 % 46 % 1001,0 hPa 0,0 l/m 6,8 km/h (2 Bft) 0,43 h 0,00 h 13,3 km/h (3 Bft)
25.04.2012 09:00 16,5 C 10,3 C 1,3 UV-I 6,1 C 53 % 82 % 100 % 1000,7 hPa 0,0 l/m 9,4 km/h (2 Bft) 1,00 h 0,00 h 14,6 km/h (3 Bft)
25.04.2012 10:00 16,6 C 11,6 C 3,0 UV-I 5,3 C 52 % 77 % 100 % 1000,7 hPa 0,0 l/m 10,9 km/h (2 Bft) 1,00 h 0,00 h 19,9 km/h (4 Bft)
25.04.2012 11:00 16,8 C 13,0 C 3,6 UV-I 4,8 C 53 % 72 % 100 % 999,9 hPa 0,0 l/m 12,1 km/h (2 Bft) 1,00 h 0,00 h 21,8 km/h (4 Bft)
25.04.2012 12:00 17,4 C 13,5 C 1,4 UV-I 2,5 C 51 % 68 % 67 % 999,5 hPa 0,0 l/m 13,3 km/h (3 Bft) 0,40 h 0,00 h 21,9 km/h (4 Bft)
25.04.2012 13:00 17,6 C 13,1 C 1,1 UV-I 1,4 C 50 % 67 % 41 % 998,8 hPa 0,0 l/m 13,1 km/h (3 Bft) 0,00 h 0,00 h 20,1 km/h (4 Bft)
25.04.2012 14:00 18,1 C 13,1 C 0,7 UV-I 0,7 C 49 % 70 % 20 % 998,5 hPa 0,2 l/m 14,2 km/h (3 Bft) 0,00 h 0,67 h 22,3 km/h (4 Bft)
25.04.2012 15:00 17,9 C 12,1 C 0,2 UV-I 0,0 C 52 % 79 % 1 % 998,0 hPa 0,5 l/m 8,1 km/h (2 Bft) 0,00 h 0,47 h 14,3 km/h (3 Bft)
25.04.2012 16:00 17,8 C 12,7 C 0,1 UV-I 0,0 C 52 % 75 % 0 % 997,9 hPa 0,1 l/m 8,9 km/h (2 Bft) 0,00 h 0,30 h 15,5 km/h (3 Bft)
25.04.2012 17:00 17,9 C 12,5 C 0,1 UV-I 0,0 C 51 % 75 % 0 % 997,8 hPa 0,1 l/m 9,8 km/h (2 Bft) 0,00 h 0,67 h 18,0 km/h (3 Bft)
25.04.2012 18:00 17,7 C 11,7 C 0,0 UV-I 0,0 C 52 % 81 % 0 % 997,7 hPa 0,4 l/m 10,4 km/h (2 Bft) 0,00 h 0,70 h 16,6 km/h (3 Bft)
25.04.2012 19:00 17,4 C 10,7 C 0,0 UV-I 0,0 C 54 % 87 % 0 % 998,2 hPa 2,2 l/m 9,0 km/h (2 Bft) 0,00 h 0,43 h 14,1 km/h (3 Bft)
25.04.2012 20:00 17,1 C 9,9 C 0,0 UV-I 0,0 C 56 % 91 % 0 % 998,0 hPa 1,1 l/m 7,2 km/h (2 Bft) 0,00 h 0,00 h 14,1 km/h (3 Bft)
25.04.2012 21:00 16,9 C 10,0 C 0,0 UV-I 0,0 C 57 % 92 % 0 % 997,5 hPa 0,0 l/m 10,5 km/h (2 Bft) 0,00 h 0,00 h 16,1 km/h (3 Bft)
25.04.2012 22:00 16,9 C 10,8 C 0,0 UV-I 0,0 C 57 % 91 % 0 % 997,3 hPa 0,0 l/m 12,4 km/h (3 Bft) 0,00 h 0,00 h 19,2 km/h (3 Bft)
25.04.2012 23:00 17,0 C 11,5 C 0,0 UV-I 0,0 C 57 % 87 % 0 % 997,2 hPa 0,0 l/m 13,6 km/h (3 Bft) 0,00 h 0,00 h 23,4 km/h (4 Bft)
26.04.2012 00:00 17,0 C 11,6 C 0,0 UV-I 0,0 C 57 % 85 % 0 % 997,9 hPa 0,0 l/m 10,9 km/h (2 Bft) 0,00 h 0,00 h 17,0 km/h (3 Bft)
26.04.2012 01:00 16,9 C 11,5 C 0,0 UV-I 0,0 C 57 % 86 % 0 % 998,3 hPa 0,2 l/m 7,4 km/h (2 Bft) 0,00 h 0,63 h 12,5 km/h (3 Bft)
26.04.2012 02:00 16,9 C 10,8 C 0,0 UV-I 0,0 C 58 % 91 % 0 % 998,1 hPa 1,0 l/m 11,4 km/h (2 Bft) 0,00 h 0,03 h 19,1 km/h (3 Bft)
26.04.2012 03:00 16,9 C 10,6 C 0,0 UV-I 0,0 C 59 % 92 % 0 % 997,8 hPa 0,0 l/m 12,4 km/h (3 Bft) 0,00 h 0,00 h 17,8 km/h (3 Bft)
26.04.2012 04:00 16,9 C 11,0 C 0,0 UV-I 0,0 C 57 % 85 % 0 % 998,0 hPa 0,1 l/m 12,3 km/h (3 Bft) 0,00 h 0,00 h 19,9 km/h (4 Bft)
26.04.2012 05:00 16,8 C 11,2 C 0,0 UV-I 0,0 C 56 % 83 % 0 % 998,0 hPa 0,0 l/m 10,7 km/h (2 Bft) 0,00 h 0,00 h 17,7 km/h (3 Bft)
26.04.2012 06:00 16,9 C 11,4 C 0,0 UV-I 0,0 C 54 % 78 % 0 % 998,8 hPa 0,0 l/m 8,8 km/h (2 Bft) 0,00 h 0,00 h 13,3 km/h (3 Bft)
26.04.2012 07:00 16,8 C 11,0 C 0,0 UV-I 0,0 C 55 % 79 % 0 % 999,6 hPa 0,0 l/m 5,6 km/h (1 Bft) 0,00 h 0,00 h 10,1 km/h (2 Bft)
26.04.2012 08:00 16,9 C 11,2 C 0,0 UV-I 0,0 C 53 % 75 % 0 % 1000,6 hPa 0,0 l/m 9,5 km/h (2 Bft) 0,00 h 0,00 h 16,5 km/h (3 Bft)
26.04.2012 09:00 17,2 C 11,5 C 0,0 UV-I 0,1 C 52 % 74 % 2 % 1001,3 hPa 0,0 l/m 11,5 km/h (2 Bft) 0,00 h 0,00 h 19,4 km/h (3 Bft)
26.04.2012 10:00 17,4 C 12,0 C 0,1 UV-I 0,7 C 51 % 72 % 20 % 1002,4 hPa 0,0 l/m 12,1 km/h (2 Bft) 0,00 h 0,00 h 20,4 km/h (4 Bft)
26.04.2012 11:00 17,7 C 13,1 C 1,5 UV-I 2,5 C 50 % 70 % 70 % 1003,0 hPa 0,0 l/m 13,8 km/h (3 Bft) 0,40 h 0,00 h 18,6 km/h (3 Bft)
26.04.2012 12:00 18,1 C 14,2 C 2,3 UV-I 3,2 C 49 % 66 % 88 % 1003,3 hPa 0,0 l/m 15,4 km/h (3 Bft) 0,67 h 0,00 h 31,4 km/h (5 Bft)
26.04.2012 13:00 18,6 C 14,7 C 1,9 UV-I 2,8 C 48 % 62 % 80 % 1003,7 hPa 0,0 l/m 16,9 km/h (3 Bft) 0,53 h 0,00 h 30,4 km/h (5 Bft)
26.04.2012 14:00 19,0 C 15,1 C 1,8 UV-I 2,7 C 47 % 62 % 76 % 1004,1 hPa 0,0 l/m 15,0 km/h (3 Bft) 0,23 h 0,00 h 23,2 km/h (4 Bft)
26.04.2012 15:00 19,6 C 15,6 C 2,0 UV-I 3,0 C 45 % 60 % 86 % 1004,0 hPa 0,0 l/m 14,8 km/h (3 Bft) 0,73 h 0,00 h 23,9 km/h (4 Bft)
26.04.2012 16:00 20,2 C 15,4 C 1,7 UV-I 2,2 C 43 % 59 % 63 % 1004,7 hPa 0,0 l/m 15,2 km/h (3 Bft) 0,00 h 0,00 h 23,9 km/h (4 Bft)
26.04.2012 17:00 20,6 C 15,8 C 2,3 UV-I 3,3 C 42 % 58 % 86 % 1005,3 hPa 0,0 l/m 13,0 km/h (3 Bft) 0,60 h 0,00 h 18,1 km/h (3 Bft)
26.04.2012 18:00 20,4 C 15,1 C 0,3 UV-I 0,9 C 42 % 58 % 25 % 1006,0 hPa 0,0 l/m 10,7 km/h (2 Bft) 0,00 h 0,00 h 21,3 km/h (4 Bft)
26.04.2012 19:00 19,5 C 14,3 C 0,0 UV-I 0,0 C 43 % 61 % 0 % 1006,5 hPa 0,0 l/m 9,1 km/h (2 Bft) 0,00 h 0,00 h 16,4 km/h (3 Bft)
26.04.2012 20:00 18,9 C 13,1 C 0,0 UV-I 0,0 C 45 % 66 % 0 % 1008,0 hPa 0,0 l/m 6,7 km/h (2 Bft) 0,00 h 0,00 h 9,9 km/h (2 Bft)
26.04.2012 21:00 18,5 C 11,6 C 0,0 UV-I 0,0 C 46 % 73 % 0 % 1008,8 hPa 0,0 l/m 0,0 km/h (0 Bft) 0,00 h 0,00 h 0,3 km/h (0 Bft)
26.04.2012 22:00 18,3 C 11,0 C 0,0 UV-I 0,0 C 48 % 78 % 0 % 1009,9 hPa 0,0 l/m 0,7 km/h (0 Bft) 0,00 h 0,00 h 2,8 km/h (1 Bft)
26.04.2012 23:00 18,2 C 10,7 C 0,0 UV-I 0,0 C 49 % 81 % 0 % 1010,4 hPa 0,0 l/m 0,3 km/h (0 Bft) 0,00 h 0,00 h 1,5 km/h (1 Bft)
27.04.2012 00:00 18,1 C 11,1 C 0,0 UV-I 0,0 C 50 % 82 % 0 % 1010,7 hPa 0,0 l/m 0,9 km/h (0 Bft) 0,00 h 0,17 h 2,6 km/h (1 Bft)
27.04.2012 01:00 18,0 C 11,1 C 0,0 UV-I 0,0 C 51 % 82 % 0 % 1010,9 hPa 0,0 l/m 1,2 km/h (1 Bft) 0,00 h 0,00 h 3,6 km/h (1 Bft)
27.04.2012 02:00 18,0 C 10,9 C 0,0 UV-I 0,0 C 52 % 84 % 0 % 1011,5 hPa 0,4 l/m 2,4 km/h (1 Bft) 0,00 h 0,53 h 5,4 km/h (1 Bft)
27.04.2012 03:00 17,9 C 10,4 C 0,0 UV-I 0,0 C 53 % 87 % 0 % 1011,4 hPa 0,1 l/m 3,6 km/h (1 Bft) 0,00 h 0,27 h 8,2 km/h (2 Bft)
27.04.2012 04:00 17,8 C 10,6 C 0,0 UV-I 0,0 C 53 % 87 % 0 % 1011,6 hPa 0,1 l/m 3,9 km/h (1 Bft) 0,00 h 0,20 h 9,9 km/h (2 Bft)
27.04.2012 05:00 17,7 C 11,0 C 0,0 UV-I 0,0 C 53 % 84 % 0 % 1012,1 hPa 0,0 l/m 4,4 km/h (1 Bft) 0,00 h 0,07 h 9,6 km/h (2 Bft)
27.04.2012 06:00 17,7 C 11,1 C 0,0 UV-I 0,0 C 53 % 82 % 0 % 1012,3 hPa 0,0 l/m 3,6 km/h (1 Bft) 0,00 h 0,10 h 8,5 km/h (2 Bft)
27.04.2012 07:00 17,7 C 11,3 C 0,0 UV-I 0,0 C 53 % 81 % 0 % 1012,6 hPa 0,0 l/m 2,7 km/h (1 Bft) 0,00 h 0,00 h 7,8 km/h (2 Bft)
27.04.2012 08:00 17,8 C 11,8 C 0,1 UV-I 0,7 C 53 % 79 % 19 % 1013,4 hPa 0,0 l/m 2,0 km/h (1 Bft) 0,00 h 0,00 h 6,0 km/h (2 Bft)
27.04.2012 09:00 18,1 C 12,8 C 0,5 UV-I 2,3 C 52 % 75 % 66 % 1013,9 hPa 0,0 l/m 4,8 km/h (1 Bft) 0,23 h 0,00 h 9,5 km/h (2 Bft)
27.04.2012 10:00 18,5 C 13,4 C 0,5 UV-I 1,8 C 50 % 71 % 51 % 1014,3 hPa 0,0 l/m 5,7 km/h (1 Bft) 0,00 h 0,00 h 10,8 km/h (2 Bft)
27.04.2012 11:00 18,8 C 14,2 C 1,5 UV-I 2,8 C 49 % 68 % 79 % 1014,9 hPa 0,0 l/m 6,7 km/h (2 Bft) 0,40 h 0,00 h 15,2 km/h (3 Bft)
27.04.2012 12:00 19,0 C 14,5 C 0,8 UV-I 2,1 C 48 % 65 % 59 % 1015,2 hPa 0,0 l/m 8,2 km/h (2 Bft) 0,10 h 0,00 h 15,3 km/h (3 Bft)
27.04.2012 13:00 19,1 C 14,8 C 1,3 UV-I 2,8 C 47 % 64 % 67 % 1015,2 hPa 0,0 l/m 8,0 km/h (2 Bft) 0,20 h 0,00 h 14,6 km/h (3 Bft)
27.04.2012 14:00 19,8 C 15,9 C 1,8 UV-I 4,1 C 46 % 60 % 97 % 1015,5 hPa 0,0 l/m 8,6 km/h (2 Bft) 0,97 h 0,00 h 14,3 km/h (3 Bft)
27.04.2012 15:00 20,5 C 16,7 C 1,9 UV-I 4,1 C 44 % 58 % 97 % 1015,0 hPa 0,0 l/m 5,4 km/h (1 Bft) 0,93 h 0,00 h 9,4 km/h (2 Bft)
27.04.2012 16:00 20,5 C 16,0 C 0,4 UV-I 1,5 C 43 % 57 % 42 % 1015,6 hPa 0,0 l/m 4,1 km/h (1 Bft) 0,00 h 0,00 h 8,0 km/h (2 Bft)
27.04.2012 17:00 20,0 C 15,8 C 0,2 UV-I 1,1 C 44 % 59 % 31 % 1015,7 hPa 0,0 l/m 0,9 km/h (0 Bft) 0,00 h 0,00 h 2,5 km/h (1 Bft)
27.04.2012 18:00 19,7 C 15,7 C 0,0 UV-I 0,6 C 45 % 59 % 17 % 1015,7 hPa 0,0 l/m 0,4 km/h (0 Bft) 0,00 h 0,00 h 1,3 km/h (1 Bft)
27.04.2012 19:00 19,5 C 15,3 C 0,0 UV-I 0,0 C 46 % 62 % 1 % 1015,4 hPa 0,0 l/m 0,1 km/h (0 Bft) 0,00 h 0,00 h 0,6 km/h (0 Bft)
27.04.2012 20:00 19,3 C 14,8 C 0,0 UV-I 0,0 C 48 % 65 % 0 % 1016,0 hPa 0,0 l/m 0,1 km/h (0 Bft) 0,00 h 0,00 h 0,3 km/h (0 Bft)
27.04.2012 21:00 19,2 C 14,3 C 0,0 UV-I 0,0 C 49 % 68 % 0 % 1016,1 hPa 0,0 l/m 0,0 km/h (0 Bft) 0,00 h 0,00 h 0,7 km/h (0 Bft)
27.04.2012 22:00 19,0 C 13,9 C 0,0 UV-I 0,0 C 50 % 69 % 0 % 1016,4 hPa 0,0 l/m 0,0 km/h (0 Bft) 0,00 h 0,00 h 0,3 km/h (0 Bft)
27.04.2012 23:00 19,0 C 12,9 C 0,0 UV-I 0,0 C 51 % 75 % 0 % 1016,6 hPa 1,2 l/m 1,3 km/h (1 Bft) 0,00 h 0,77 h 3,2 km/h (1 Bft)
28.04.2012 00:00 18,8 C 11,5 C 0,0 UV-I 0,0 C 52 % 84 % 0 % 1016,5 hPa 0,2 l/m 0,1 km/h (0 Bft) 0,00 h 0,53 h 1,4 km/h (1 Bft)
28.04.2012 01:00 18,7 C 11,0 C 0,0 UV-I 0,0 C 54 % 89 % 0 % 1016,2 hPa 2,2 l/m 0,3 km/h (0 Bft) 0,00 h 0,87 h 1,3 km/h (1 Bft)
28.04.2012 02:00 18,6 C 10,7 C 0,0 UV-I 0,0 C 54 % 93 % 0 % 1015,3 hPa 0,6 l/m 1,3 km/h (1 Bft) 0,00 h 0,17 h 2,9 km/h (1 Bft)
28.04.2012 03:00 18,4 C 10,8 C 0,0 UV-I 0,0 C 56 % 95 % 0 % 1014,7 hPa 0,9 l/m 3,1 km/h (1 Bft) 0,00 h 0,83 h 5,3 km/h (1 Bft)
28.04.2012 04:00 18,4 C 10,9 C 0,0 UV-I 0,0 C 57 % 96 % 0 % 1014,3 hPa 0,7 l/m 2,5 km/h (1 Bft) 0,00 h 0,33 h 4,3 km/h (1 Bft)
28.04.2012 05:00 18,4 C 11,1 C 0,0 UV-I 0,0 C 57 % 96 % 0 % 1013,1 hPa 0,1 l/m 2,6 km/h (1 Bft) 0,00 h 0,30 h 5,0 km/h (1 Bft)
28.04.2012 06:00 18,4 C 11,1 C 0,0 UV-I 0,0 C 58 % 97 % 0 % 1012,2 hPa 0,0 l/m 0,9 km/h (0 Bft) 0,00 h 0,00 h 0,9 km/h (0 Bft)
28.04.2012 07:00 18,4 C 11,2 C 0,0 UV-I 0,0 C 59 % 97 % 0 % 1011,5 hPa 0,0 l/m 0,0 km/h (0 Bft) 0,00 h 0,00 h 0,5 km/h (0 Bft)
28.04.2012 08:00 18,5 C 12,0 C 0,0 UV-I 0,6 C 59 % 97 % 17 % 1010,9 hPa 0,0 l/m 0,6 km/h (0 Bft) 0,00 h 0,00 h 1,9 km/h (1 Bft)
28.04.2012 09:00 18,8 C 13,1 C 0,1 UV-I 1,4 C 59 % 97 % 41 % 1010,7 hPa 0,0 l/m 1,5 km/h (1 Bft) 0,00 h 0,00 h 3,8 km/h (1 Bft)
28.04.2012 10:00 19,2 C 15,1 C 0,6 UV-I 2,0 C 60 % 96 % 58 % 1010,3 hPa 0,0 l/m 5,5 km/h (1 Bft) 0,13 h 0,00 h 12,1 km/h (2 Bft)
28.04.2012 11:00 19,5 C 18,0 C 1,4 UV-I 3,6 C 61 % 91 % 92 % 1010,6 hPa 0,0 l/m 4,3 km/h (1 Bft) 0,73 h 0,00 h 6,1 km/h (2 Bft)
28.04.2012 12:00 19,9 C 20,0 C 0,8 UV-I 2,8 C 60 % 83 % 78 % 1010,5 hPa 0,0 l/m 0,8 km/h (0 Bft) 0,43 h 0,00 h 2,3 km/h (1 Bft)
28.04.2012 13:00 20,1 C 20,6 C 0,5 UV-I 1,4 C 59 % 79 % 39 % 1010,8 hPa 0,0 l/m 2,9 km/h (1 Bft) 0,00 h 0,00 h 5,7 km/h (1 Bft)
28.04.2012 14:00 20,2 C 20,5 C 0,8 UV-I 1,7 C 60 % 79 % 48 % 1010,8 hPa 0,0 l/m 2,9 km/h (1 Bft) 0,03 h 0,00 h 5,2 km/h (1 Bft)
28.04.2012 15:00 20,6 C 22,3 C 1,5 UV-I 3,1 C 60 % 70 % 87 % 1009,2 hPa 0,0 l/m 2,8 km/h (1 Bft) 0,63 h 0,00 h 6,1 km/h (2 Bft)
28.04.2012 16:00 21,2 C 24,1 C 1,4 UV-I 3,0 C 58 % 61 % 84 % 1009,2 hPa 0,0 l/m 0,9 km/h (0 Bft) 0,57 h 0,00 h 3,2 km/h (1 Bft)
28.04.2012 17:00 21,5 C 23,5 C 1,1 UV-I 1,8 C 57 % 65 % 51 % 1009,1 hPa 0,0 l/m 6,2 km/h (2 Bft) 0,00 h 0,00 h 9,5 km/h (2 Bft)
28.04.2012 18:00 21,5 C 22,1 C 0,4 UV-I 0,3 C 57 % 72 % 8 % 1009,2 hPa 0,0 l/m 6,1 km/h (2 Bft) 0,00 h 0,00 h 9,7 km/h (2 Bft)
28.04.2012 19:00 21,2 C 20,0 C 0,0 UV-I 0,0 C 58 % 79 % 0 % 1009,2 hPa 0,0 l/m 7,9 km/h (2 Bft) 0,00 h 0,00 h 11,4 km/h (2 Bft)
28.04.2012 20:00 20,8 C 18,2 C 0,0 UV-I 0,0 C 59 % 84 % 0 % 1009,6 hPa 0,0 l/m 11,4 km/h (2 Bft) 0,00 h 0,00 h 19,8 km/h (4 Bft)
28.04.2012 21:00 20,5 C 16,2 C 0,0 UV-I 0,0 C 61 % 88 % 0 % 1009,7 hPa 0,0 l/m 13,6 km/h (3 Bft) 0,00 h 0,00 h 21,1 km/h (4 Bft)
28.04.2012 22:00 20,2 C 15,0 C 0,0 UV-I 0,0 C 62 % 90 % 0 % 1009,5 hPa 0,0 l/m 12,8 km/h (3 Bft) 0,00 h 0,00 h 21,0 km/h (4 Bft)
28.04.2012 23:00 20,0 C 14,0 C 0,0 UV-I 0,0 C 62 % 91 % 0 % 1008,8 hPa 0,0 l/m 17,1 km/h (3 Bft) 0,00 h 0,00 h 22,4 km/h (4 Bft)
29.04.2012 00:00 19,7 C 13,8 C 0,0 UV-I 0,0 C 63 % 92 % 0 % 1007,4 hPa 0,0 l/m 15,6 km/h (3 Bft) 0,00 h 0,00 h 22,3 km/h (4 Bft)
29.04.2012 01:00 19,5 C 14,3 C 0,0 UV-I 0,0 C 63 % 90 % 0 % 1006,0 hPa 0,0 l/m 8,4 km/h (2 Bft) 0,00 h 0,00 h 12,1 km/h (2 Bft)
29.04.2012 02:00 19,5 C 14,5 C 0,0 UV-I 0,0 C 63 % 88 % 0 % 1005,0 hPa 0,0 l/m 6,3 km/h (2 Bft) 0,00 h 0,00 h 9,8 km/h (2 Bft)
29.04.2012 03:00 19,4 C 14,3 C 0,0 UV-I 0,0 C 63 % 88 % 0 % 1003,9 hPa 0,0 l/m 6,1 km/h (2 Bft) 0,00 h 0,00 h 10,0 km/h (2 Bft)
29.04.2012 04:00 19,5 C 13,9 C 0,0 UV-I 0,0 C 63 % 90 % 0 % 1004,3 hPa 0,0 l/m 2,4 km/h (1 Bft) 0,00 h 0,00 h 4,6 km/h (1 Bft)
29.04.2012 05:00 19,4 C 13,9 C 0,0 UV-I 0,0 C 63 % 89 % 0 % 1003,3 hPa 0,0 l/m 6,0 km/h (2 Bft) 0,00 h 0,00 h 9,3 km/h (2 Bft)
29.04.2012 06:00 19,2 C 13,6 C 0,0 UV-I 0,0 C 62 % 89 % 0 % 1003,0 hPa 0,0 l/m 5,9 km/h (2 Bft) 0,00 h 0,00 h 9,2 km/h (2 Bft)
29.04.2012 07:00 19,3 C 13,3 C 0,0 UV-I 0,0 C 62 % 89 % 0 % 1003,0 hPa 0,0 l/m 5,5 km/h (1 Bft) 0,00 h 0,00 h 9,5 km/h (2 Bft)
29.04.2012 08:00 19,4 C 13,2 C 0,0 UV-I 0,0 C 65 % 89 % 0 % 1002,8 hPa 0,0 l/m 6,7 km/h (2 Bft) 0,00 h 0,03 h 10,2 km/h (2 Bft)
29.04.2012 09:00 19,5 C 13,4 C 0,1 UV-I 0,6 C 66 % 89 % 18 % 1002,5 hPa 0,0 l/m 4,7 km/h (1 Bft) 0,00 h 0,00 h 7,9 km/h (2 Bft)
29.04.2012 10:00 19,8 C 14,0 C 0,0 UV-I 1,1 C 64 % 88 % 30 % 1003,8 hPa 0,0 l/m 3,2 km/h (1 Bft) 0,00 h 0,00 h 6,5 km/h (2 Bft)
29.04.2012 11:00 19,8 C 14,2 C 0,1 UV-I 0,8 C 64 % 88 % 22 % 1003,4 hPa 0,0 l/m 8,5 km/h (2 Bft) 0,00 h 0,00 h 14,1 km/h (3 Bft)
29.04.2012 12:00 20,0 C 15,4 C 0,9 UV-I 2,3 C 63 % 86 % 64 % 1004,8 hPa 0,0 l/m 4,1 km/h (1 Bft) 0,07 h 0,00 h 7,9 km/h (2 Bft)
29.04.2012 13:00 20,3 C 18,2 C 2,2 UV-I 5,1 C 63 % 82 % 99 % 1005,5 hPa 0,0 l/m 6,9 km/h (2 Bft) 1,00 h 0,00 h 13,3 km/h (3 Bft)
29.04.2012 14:00 21,2 C 20,2 C 1,9 UV-I 3,9 C 61 % 72 % 96 % 1005,6 hPa 0,0 l/m 7,6 km/h (2 Bft) 0,90 h 0,00 h 11,1 km/h (2 Bft)
29.04.2012 15:00 21,9 C 21,6 C 1,9 UV-I 4,2 C 58 % 64 % 93 % 1005,5 hPa 0,0 l/m 4,1 km/h (1 Bft) 0,80 h 0,03 h 9,0 km/h (2 Bft)
29.04.2012 16:00 22,0 C 20,7 C 0,9 UV-I 1,5 C 56 % 63 % 42 % 1006,8 hPa 0,0 l/m 4,9 km/h (1 Bft) 0,00 h 0,03 h 10,1 km/h (2 Bft)
29.04.2012 17:00 21,7 C 19,6 C 0,3 UV-I 0,5 C 54 % 62 % 16 % 1007,8 hPa 0,0 l/m 2,3 km/h (1 Bft) 0,00 h 0,03 h 5,4 km/h (1 Bft)
29.04.2012 18:00 21,4 C 19,9 C 0,6 UV-I 1,1 C 54 % 61 % 31 % 1007,9 hPa 0,0 l/m 0,3 km/h (0 Bft) 0,00 h 0,00 h 1,1 km/h (0 Bft)
29.04.2012 19:00 21,3 C 20,4 C 0,2 UV-I 0,0 C 54 % 59 % 0 % 1008,0 hPa 0,0 l/m 0,7 km/h (0 Bft) 0,00 h 0,00 h 1,9 km/h (1 Bft)
29.04.2012 20:00 21,1 C 19,3 C 0,0 UV-I 0,0 C 55 % 64 % 0 % 1009,1 hPa 0,0 l/m 0,0 km/h (0 Bft) 0,00 h 0,00 h 0,0 km/h (0 Bft)
29.04.2012 21:00 20,8 C 17,1 C 0,0 UV-I 0,0 C 57 % 72 % 0 % 1010,0 hPa 0,0 l/m 0,0 km/h (0 Bft) 0,00 h 0,00 h 0,0 km/h (0 Bft)
29.04.2012 22:00 20,5 C 15,8 C 0,0 UV-I 0,0 C 58 % 79 % 0 % 1010,8 hPa 0,0 l/m 0,0 km/h (0 Bft) 0,00 h 0,00 h 0,0 km/h (0 Bft)
29.04.2012 23:00 20,3 C 14,7 C 0,0 UV-I 0,0 C 60 % 83 % 0 % 1011,4 hPa 0,0 l/m 0,0 km/h (0 Bft) 0,00 h 0,00 h 0,0 km/h (0 Bft)
Min-Datum _ 23.04.12 23.04.12 23.04.12 23.04.12 23.04.12 23.04.12 23.04.12 24.04.12 - 24.04.12 - - 23.04.12
_ Min-Zeit 05:40 05:30 00:00 00:00 17:16 15:58 00:00 06:20 - 19:46 - - 00:00
Minimum _ 15,6 C 4,5 C 0,0 UV-I 0,0 C 40 % 51 % 0 % 993,6 hPa - 0,0 km/h (0 Bft) - - 0,0 km/h (0 Bft)
Max-Datum _ 29.04.12 28.04.12 23.04.12 23.04.12 29.04.12 28.04.12 23.04.12 27.04.12 24.04.12 26.04.12 23.04.12 23.04.12 26.04.12
_ Max-Zeit 15:32 16:28 11:04 10:00 08:58 05:36 08:42 23:20 20:42 13:20 08:40 21:16 13:20
Maximum _ 22,1 C 24,5 C 4,8 UV-I 7,8 C 66 % 97 % 100 % 1016,8 hPa 5,4 l/m 20,9 km/h
N-NO (4 Bft)
0,03 h 0,03 h 61,8 km/h
N-NO (7 Bft)
Durchschnitt _ 18,3 C 12,5 C 0,5 UV-I 1,0 C 53 % 79 % 25 % 1004,2 hPa #23,0 l/m 5,7 km/h (1 Bft) #23:50 h #15:28 h 10,1 km/h (2 Bft)
© 2012 W. Hausmann